Aeroporto :
LOGIN :

Iscrizione | Disclaimer

   EN    FR    IT 

 










Sommario :    VFR   VFR Marginale   IFR   IFR Intensivo   IFR Molto Intensivo
Visibilità : 
Base nubi : 
>= 8 km
>= 3000ft
5 / 8 km
1000 / 3000 ft
1500m / 5 km
500 / 1000 ft
800 / 1500m
200 / 500 ft
< 800m
< 200 ft
Simboli :   Temporali  Nebbia  Neve Forte  Precipitazioni Forti  Vento > 20 kt
SIGMETs :   Varie  Temporali  Ghiacco  Turbolenza  Onda orograficha  Ceneri Vulcaniche







- Altitudine del aeroporto : 290 ft
- Codice IATA : ACI
- Carte del aeroporto


EGJA - Alderney

ULTIMO METAR :
  • 251150Z 26007KT 9999 BKN008 19/16 Q1019

METARs OBSOLETI :
  • 251120Z 26007KT 220V310 9999 FEW002 19/16 Q1019
  • 251050Z 29008KT 260V320 9999 FEW002 19/16 Q1019
  • 250950Z 30008KT 6000 SCT002 19/17 Q1019
  • 250920Z 30009KT 6000 FEW002 18/16 Q1018

TAF TAF EGJA
Valido dal 25 a 12 ore il 25 a 21 ore UTC


251100Z 2512/2521 30008KT 9999 FEW002 SCT003
TEMPO 2512/2515 5000 BR BKN003 FEW080CB
PROB30
TEMPO 2512/2515 2000 BKN002
Nessun NOTAM noto per questo aeroporto.



MetMap, La meteo Aeronautica in un colpo d'occhio ! - Copyright ORBIFLY Dicembre 2007 - Disclaimer

ORBIFLY MET'MAP TEAM :

Programmazione e sviluppo : Alexandra Zaïnal
Concezione e sviluppo : Baudouin d'Aumeries
Co-Programmazione e sviluppo : Marc-Olivier Méhu
Supporto tecnico e logistico : Manuel Goepfert
Aiuto per la traduzione : Arnaldo La Scala

Contatto : metmap@orbifly.com




FONTI E CREDITI :

   NOAA